Time;durP1;ratioP1;P1;durP2;ratioP2;P2;SDS_P1;SDS_P2;PMS_P1;PMS_P2;Temp;Humidity;BMP_temperature;BMP_pressure;BME280_temperature;BME280_humidity;BME280_pressure;Samples;Min_cycle;Max_cycle;Signal;HPM_P1;HPM_P2
2021/07/16 00:00:40;;;;;;;4.97;3.95;;;21.80;70.10;;;;;;5053169;28;20638;-64
2021/07/16 00:03:05;;;;;;;4.25;3.85;;;21.70;70.00;;;;;;5052202;28;20194;-65
2021/07/16 00:05:31;;;;;;;5.28;4.63;;;21.70;70.00;;;;;;5053052;28;20270;-65
2021/07/16 00:07:56;;;;;;;4.82;4.30;;;21.70;70.00;;;;;;5052958;28;20179;-65
2021/07/16 00:10:21;;;;;;;5.45;3.97;;;21.70;70.00;;;;;;5052017;28;20669;-65
2021/07/16 00:12:48;;;;;;;5.53;4.50;;;21.70;70.00;;;;;;5052740;28;20171;-64
2021/07/16 00:15:14;;;;;;;5.03;4.25;;;21.70;70.00;;;;;;5053340;28;20175;-65
2021/07/16 00:17:40;;;;;;;4.95;4.50;;;21.70;70.00;;;;;;5052141;28;20177;-65
2021/07/16 00:20:06;;;;;;;4.43;4.03;;;21.70;70.00;;;;;;5053022;28;20272;-65
2021/07/16 00:22:31;;;;;;;4.70;4.20;;;21.70;70.00;;;;;;5052483;28;20642;-66
2021/07/16 00:24:57;;;;;;;5.15;4.57;;;21.70;70.00;;;;;;5052444;28;20190;-65
2021/07/16 00:27:22;;;;;;;7.68;4.65;;;21.70;70.00;;;;;;5052575;28;20222;-65
2021/07/16 00:29:48;;;;;;;4.88;4.38;;;21.70;69.90;;;;;;5051614;28;20214;-64
2021/07/16 00:32:13;;;;;;;4.53;4.13;;;21.70;70.00;;;;;;5052880;28;20171;-64
2021/07/16 00:34:39;;;;;;;5.90;3.97;;;21.70;70.00;;;;;;5052703;28;20186;-65
2021/07/16 00:37:04;;;;;;;6.47;3.90;;;21.70;70.00;;;;;;5052053;28;20175;-65
2021/07/16 00:39:31;;;;;;;5.60;4.38;;;21.70;69.90;;;;;;5052431;28;20183;-65
2021/07/16 00:41:57;;;;;;;4.68;3.97;;;21.70;69.90;;;;;;5052572;28;20175;-65
2021/07/16 00:44:22;;;;;;;3.97;3.67;;;21.70;69.90;;;;;;5052148;28;20174;-65
2021/07/16 00:46:48;;;;;;;4.20;3.80;;;21.70;69.90;;;;;;5052340;28;20642;-65
2021/07/16 00:49:13;;;;;;;5.57;3.92;;;21.70;69.90;;;;;;5052643;28;20183;-64
2021/07/16 00:51:40;;;;;;;4.45;4.05;;;21.70;70.00;;;;;;5051554;28;20190;-65
2021/07/16 00:54:05;;;;;;;4.65;4.00;;;21.70;69.90;;;;;;5052341;28;20179;-64
2021/07/16 00:56:31;;;;;;;5.00;4.05;;;21.70;69.90;;;;;;5055260;28;20179;-65
2021/07/16 00:58:56;;;;;;;4.47;4.07;;;21.70;69.90;;;;;;5055782;28;20554;-65
2021/07/16 01:01:22;;;;;;;5.70;4.10;;;21.60;69.80;;;;;;5055469;28;20170;-64
2021/07/16 01:03:49;;;;;;;5.10;4.03;;;21.60;69.80;;;;;;5055350;28;20172;-65
2021/07/16 01:06:14;;;;;;;4.82;4.30;;;21.70;69.90;;;;;;5055103;28;20190;-64
2021/07/16 01:08:40;;;;;;;5.28;3.85;;;21.60;69.90;;;;;;5056050;28;20538;-65
2021/07/16 01:11:05;;;;;;;4.20;3.80;;;21.70;69.90;;;;;;5056256;28;20211;-65
2021/07/16 01:13:31;;;;;;;5.30;3.95;;;21.60;69.80;;;;;;5054063;28;20175;-64
2021/07/16 01:15:56;;;;;;;5.60;4.00;;;21.70;69.90;;;;;;5055019;28;20201;-65
2021/07/16 01:18:25;;;;;;;4.88;4.40;;;21.70;69.90;;;;;;5056288;28;20664;-65
2021/07/16 01:20:51;;;;;;;5.15;4.20;;;21.60;69.80;;;;;;5054141;28;20313;-65
2021/07/16 01:23:19;;;;;;;4.95;4.55;;;21.60;69.80;;;;;;5054954;28;20197;-65
2021/07/16 01:25:45;;;;;;;6.38;4.25;;;21.60;70.70;;;;;;5055737;28;20187;-64
2021/07/16 01:28:10;;;;;;;4.38;3.97;;;21.60;69.80;;;;;;5055074;28;20276;-64
2021/07/16 01:30:36;;;;;;;4.30;4.00;;;21.60;69.80;;;;;;5055810;28;20302;-64
2021/07/16 01:33:02;;;;;;;4.53;4.10;;;21.60;69.80;;;;;;5055742;28;20175;-64
2021/07/16 01:35:28;;;;;;;3.97;3.67;;;21.60;69.90;;;;;;5055764;28;20182;-64
2021/07/16 01:37:53;;;;;;;4.45;4.05;;;21.60;69.80;;;;;;5055533;28;20171;-65
2021/07/16 01:40:20;;;;;;;4.50;4.10;;;21.60;69.80;;;;;;5055193;28;20687;-65
2021/07/16 01:42:47;;;;;;;4.45;4.15;;;21.60;69.80;;;;;;5055649;28;20171;-64
2021/07/16 01:45:14;;;;;;;4.15;3.75;;;21.60;69.80;;;;;;5056006;28;20186;-65
2021/07/16 01:47:46;;;;;;;5.95;4.20;;;21.60;69.80;;;;;;5054760;28;20179;-64
2021/07/16 01:50:12;;;;;;;4.97;4.50;;;21.60;69.80;;;;;;5055579;28;20624;-65
2021/07/16 01:52:37;;;;;;;4.50;4.10;;;21.60;69.80;;;;;;5055532;28;20681;-65
2021/07/16 01:55:04;;;;;;;3.92;3.50;;;21.60;69.80;;;;;;5053992;28;20317;-64
2021/07/16 01:57:30;;;;;;;5.05;4.10;;;21.60;69.80;;;;;;5055532;28;20198;-64
2021/07/16 01:59:55;;;;;;;6.05;4.18;;;21.60;69.70;;;;;;5055285;28;20638;-65
2021/07/16 02:02:21;;;;;;;4.35;3.97;;;21.60;69.70;;;;;;5054732;28;20178;-65
2021/07/16 02:04:46;;;;;;;5.50;4.40;;;21.60;69.70;;;;;;5055153;28;20174;-65
2021/07/16 02:07:12;;;;;;;4.13;3.72;;;21.60;69.70;;;;;;5054295;28;20179;-65
2021/07/16 02:09:37;;;;;;;5.30;4.60;;;21.50;69.60;;;;;;5054098;28;20685;-65
2021/07/16 02:12:04;;;;;;;4.47;4.03;;;21.60;69.70;;;;;;5055347;28;20218;-64
2021/07/16 02:14:30;;;;;;;4.40;4.00;;;21.50;69.60;;;;;;5055431;28;20551;-65
2021/07/16 02:16:59;;;;;;;4.50;4.10;;;21.50;69.60;;;;;;5054482;28;20629;-65
2021/07/16 02:19:25;;;;;;;4.40;4.00;;;21.60;69.70;;;;;;5055215;28;20193;-65
2021/07/16 02:21:50;;;;;;;4.80;4.25;;;21.60;69.70;;;;;;5054805;28;20309;-66
2021/07/16 02:24:16;;;;;;;4.55;4.15;;;21.50;69.60;;;;;;5054189;28;20167;-65
2021/07/16 02:26:41;;;;;;;4.47;3.90;;;21.50;69.60;;;;;;5054556;28;20673;-65
2021/07/16 02:29:07;;;;;;;4.45;4.15;;;21.50;69.60;;;;;;5054807;28;20634;-65
2021/07/16 02:31:32;;;;;;;4.30;3.95;;;21.50;69.60;;;;;;5053975;28;20182;-65
2021/07/16 02:33:58;;;;;;;7.50;4.13;;;21.50;69.60;;;;;;5054720;28;20191;-65
2021/07/16 02:36:23;;;;;;;4.72;4.30;;;21.50;69.60;;;;;;5054285;28;20237;-66
2021/07/16 02:38:50;;;;;;;5.55;4.30;;;21.50;69.60;;;;;;5054218;28;20543;-66
2021/07/16 02:41:15;;;;;;;4.85;4.40;;;21.50;69.60;;;;;;5054831;28;20175;-66
2021/07/16 02:43:41;;;;;;;4.50;4.10;;;21.50;69.60;;;;;;5053519;28;20269;-65
2021/07/16 02:46:06;;;;;;;4.68;4.28;;;21.50;69.60;;;;;;5054591;28;20175;-66
2021/07/16 02:48:33;;;;;;;4.38;3.97;;;21.50;69.60;;;;;;5054844;28;20175;-65
2021/07/16 02:50:59;;;;;;;4.57;4.18;;;21.50;69.50;;;;;;5053638;28;20210;-66
2021/07/16 02:53:24;;;;;;;4.68;4.10;;;21.50;69.60;;;;;;5054242;28;20175;-65
2021/07/16 02:55:50;;;;;;;4.95;4.40;;;21.50;69.50;;;;;;5054278;28;20171;-65
2021/07/16 02:58:16;;;;;;;4.93;4.20;;;21.50;69.50;;;;;;5053698;28;20172;-66
2021/07/16 03:00:41;;;;;;;5.70;4.30;;;21.50;69.60;;;;;;5054150;28;20190;-65
2021/07/16 03:03:08;;;;;;;4.82;4.30;;;21.50;69.60;;;;;;5054328;28;20171;-65
2021/07/16 03:05:37;;;;;;;4.55;4.10;;;21.50;69.50;;;;;;5053206;28;20172;-66
2021/07/16 03:08:03;;;;;;;6.00;4.50;;;21.50;69.50;;;;;;5054077;28;20179;-66
2021/07/16 03:10:33;;;;;;;5.95;4.60;;;21.50;69.50;;;;;;5054304;28;20294;-66
2021/07/16 03:13:04;;;;;;;4.78;4.13;;;21.50;69.50;;;;;;5053541;28;20179;-66
2021/07/16 03:15:30;;;;;;;4.60;4.20;;;21.50;69.50;;;;;;5053781;28;20176;-66
2021/07/16 03:17:55;;;;;;;4.60;4.20;;;21.40;69.40;;;;;;5054249;28;20171;-66
2021/07/16 03:20:26;;;;;;;6.10;4.38;;;21.40;69.40;;;;;;5053208;28;20179;-66
2021/07/16 03:22:54;;;;;;;5.15;4.68;;;21.50;69.50;;;;;;5053674;28;20547;-65
2021/07/16 03:25:32;;;;;;;4.70;3.80;;;21.40;69.40;;;;;;5053896;28;20190;-65
2021/07/16 03:27:58;;;;;;;5.35;4.75;;;21.40;69.40;;;;;;5053021;28;20214;-65
2021/07/16 03:30:25;;;;;;;4.95;4.45;;;21.40;69.40;;;;;;5053646;28;20571;-65
2021/07/16 03:32:51;;;;;;;4.63;4.22;;;21.50;69.40;;;;;;5052632;28;20669;-66
2021/07/16 03:35:16;;;;;;;5.25;4.63;;;21.40;69.30;;;;;;5053805;28;20179;-65
2021/07/16 03:37:42;;;;;;;5.25;4.53;;;21.40;69.30;;;;;;5053436;28;20236;-65
2021/07/16 03:40:09;;;;;;;5.53;4.05;;;21.40;69.30;;;;;;5052897;28;20171;-66
2021/07/16 03:42:35;;;;;;;5.63;4.50;;;21.40;69.30;;;;;;5053194;28;20250;-65
2021/07/16 03:45:05;;;;;;;6.05;4.50;;;21.40;70.20;;;;;;5053491;28;20704;-66
2021/07/16 03:47:30;;;;;;;6.55;4.70;;;21.40;69.40;;;;;;5052174;28;20178;-65
2021/07/16 03:49:57;;;;;;;5.20;4.40;;;21.40;70.20;;;;;;5053489;28;20210;-65
2021/07/16 03:52:22;;;;;;;4.88;4.30;;;21.40;69.30;;;;;;5053836;28;20250;-66
2021/07/16 03:54:49;;;;;;;4.75;4.35;;;21.40;69.30;;;;;;5052266;28;20257;-65
2021/07/16 03:57:14;;;;;;;4.75;4.15;;;21.40;69.30;;;;;;5052237;28;20175;-64
2021/07/16 03:59:40;;;;;;;5.00;4.50;;;21.40;69.30;;;;;;5052856;28;20253;-64
2021/07/16 04:02:06;;;;;;;4.72;3.95;;;21.40;69.30;;;;;;5052361;28;20633;-63
2021/07/16 04:04:33;;;;;;;6.47;4.70;;;21.40;69.30;;;;;;5053009;28;20258;-63
2021/07/16 04:06:58;;;;;;;4.65;4.10;;;21.40;69.20;;;;;;5053185;28;20533;-64
2021/07/16 04:09:27;;;;;;;5.60;4.55;;;21.40;69.20;;;;;;5052372;28;20661;-64
2021/07/16 04:12:14;;;;;;;5.20;4.35;;;21.40;69.30;;;;;;5052769;28;20246;-64
2021/07/16 04:14:45;;;;;;;4.72;4.22;;;21.40;69.20;;;;;;5052689;28;20221;-63
2021/07/16 04:17:24;;;;;;;4.70;4.20;;;21.40;69.20;;;;;;5052426;28;20179;-64
2021/07/16 04:19:49;;;;;;;5.57;4.88;;;21.40;69.20;;;;;;5052881;28;20602;-63
2021/07/16 04:22:15;;;;;;;7.13;4.55;;;21.40;69.20;;;;;;5052158;28;20167;-63
2021/07/16 04:24:42;;;;;;;5.55;4.55;;;21.40;69.20;;;;;;5052614;28;20179;-64
2021/07/16 04:27:07;;;;;;;5.47;4.30;;;21.40;69.20;;;;;;5052596;28;20305;-63
2021/07/16 04:29:33;;;;;;;5.75;4.30;;;21.40;69.20;;;;;;5051361;28;20630;-63
2021/07/16 04:31:59;;;;;;;5.30;3.80;;;21.40;69.20;;;;;;5052945;28;20229;-63
2021/07/16 04:34:25;;;;;;;4.55;4.07;;;21.40;69.20;;;;;;5052785;28;20180;-63
2021/07/16 04:36:50;;;;;;;5.38;4.38;;;21.40;69.20;;;;;;5051845;28;20179;-64
2021/07/16 04:39:16;;;;;;;4.28;3.88;;;21.40;69.10;;;;;;5052841;28;20179;-64
2021/07/16 04:41:41;;;;;;;4.80;4.20;;;21.40;69.20;;;;;;5052399;28;20175;-64
2021/07/16 04:44:07;;;;;;;6.55;4.70;;;21.40;69.10;;;;;;5052092;28;20182;-64
2021/07/16 04:46:32;;;;;;;5.70;4.43;;;21.40;69.20;;;;;;5052507;28;20520;-64
2021/07/16 04:48:58;;;;;;;5.53;4.47;;;21.40;69.10;;;;;;5052526;28;20171;-64
2021/07/16 04:51:27;;;;;;;5.78;4.88;;;21.40;69.10;;;;;;5051964;28;20565;-63
2021/07/16 04:53:54;;;;;;;4.95;4.43;;;21.40;69.20;;;;;;5052298;28;20182;-64
2021/07/16 04:56:19;;;;;;;4.10;3.70;;;21.40;69.10;;;;;;5052443;28;20634;-63
2021/07/16 04:58:45;;;;;;;5.00;4.05;;;21.40;69.10;;;;;;5051639;28;20184;-64
2021/07/16 05:01:10;;;;;;;5.70;4.25;;;21.40;69.10;;;;;;5052465;28;20230;-64
2021/07/16 05:03:36;;;;;;;4.50;4.07;;;21.40;69.10;;;;;;5052265;28;20171;-63
2021/07/16 05:06:01;;;;;;;5.05;4.13;;;21.40;69.10;;;;;;5051825;28;20233;-64
2021/07/16 05:08:27;;;;;;;4.57;4.07;;;21.40;69.10;;;;;;5052387;28;20171;-64
2021/07/16 05:10:52;;;;;;;7.00;4.32;;;21.40;69.00;;;;;;5052301;28;20206;-64
2021/07/16 05:13:18;;;;;;;6.22;4.75;;;21.40;69.00;;;;;;5052230;28;20622;-65
2021/07/16 05:15:43;;;;;;;5.28;4.78;;;21.40;69.00;;;;;;5052271;28;20202;-65
2021/07/16 05:18:12;;;;;;;5.20;3.80;;;21.40;69.00;;;;;;5052009;28;20178;-67
2021/07/16 05:20:37;;;;;;;5.43;4.80;;;21.40;69.00;;;;;;5051942;28;20265;-66
2021/07/16 05:23:03;;;;;;;5.70;4.30;;;21.40;69.10;;;;;;5052860;28;20202;-64
2021/07/16 05:25:28;;;;;;;5.97;4.57;;;21.40;69.00;;;;;;5051976;28;20171;-66
2021/07/16 05:27:54;;;;;;;5.07;3.92;;;21.40;69.00;;;;;;5052216;28;20218;-65
2021/07/16 05:30:19;;;;;;;6.25;4.20;;;21.40;69.00;;;;;;5052808;28;20211;-65
2021/07/16 05:32:45;;;;;;;5.32;3.65;;;21.40;69.00;;;;;;5051404;28;20662;-66
2021/07/16 05:35:10;;;;;;;4.80;4.30;;;21.40;68.90;;;;;;5052571;28;20614;-65
2021/07/16 05:37:36;;;;;;;5.60;4.32;;;21.40;68.90;;;;;;5052574;28;20203;-66
2021/07/16 05:40:02;;;;;;;4.50;3.95;;;21.40;68.90;;;;;;5052534;28;20171;-66
2021/07/16 05:42:27;;;;;;;5.45;4.10;;;21.40;68.80;;;;;;5055160;28;20554;-66
2021/07/16 05:44:53;;;;;;;6.97;4.13;;;21.40;68.80;;;;;;5055343;28;20545;-66
2021/07/16 05:47:18;;;;;;;6.22;4.20;;;21.40;68.70;;;;;;5055104;28;20171;-65
2021/07/16 05:49:44;;;;;;;4.75;3.78;;;21.40;68.70;;;;;;5055397;28;20195;-66
2021/07/16 05:52:09;;;;;;;6.35;3.85;;;21.40;68.70;;;;;;5056050;28;20657;-66
2021/07/16 05:54:35;;;;;;;5.22;4.13;;;21.40;68.60;;;;;;5054527;28;20182;-65
2021/07/16 05:57:01;;;;;;;5.82;4.05;;;21.40;68.60;;;;;;5055792;28;20674;-66
2021/07/16 05:59:26;;;;;;;5.93;4.00;;;21.50;68.70;;;;;;5055771;28;20179;-64
2021/07/16 06:01:52;;;;;;;6.80;4.25;;;21.40;68.70;;;;;;5054632;28;20209;-65
2021/07/16 06:04:17;;;;;;;5.72;3.95;;;21.40;68.70;;;;;;5055403;28;20175;-67
2021/07/16 06:06:45;;;;;;;6.22;4.55;;;21.40;68.70;;;;;;5055235;28;20653;-66
2021/07/16 06:09:11;;;;;;;8.70;3.65;;;21.40;68.70;;;;;;5053270;28;20183;-65
2021/07/16 06:11:36;;;;;;;4.97;3.95;;;21.40;68.70;;;;;;5055140;28;20182;-65
2021/07/16 06:14:02;;;;;;;8.15;4.47;;;21.50;68.70;;;;;;5055205;28;20183;-65
2021/07/16 06:16:28;;;;;;;6.38;4.00;;;21.40;68.60;;;;;;5054552;28;20175;-66
2021/07/16 06:18:56;;;;;;;3.90;3.28;;;21.40;68.50;;;;;;5054938;28;20638;-66
2021/07/16 06:21:22;;;;;;;5.57;4.15;;;21.40;68.50;;;;;;5055041;28;20180;-67
2021/07/16 06:23:47;;;;;;;4.68;3.60;;;21.40;68.60;;;;;;5054009;28;20182;-64
2021/07/16 06:26:13;;;;;;;4.70;4.00;;;21.40;68.60;;;;;;5054726;28;20227;-65
2021/07/16 06:28:38;;;;;;;4.53;3.72;;;21.40;68.60;;;;;;5054159;28;20182;-65
2021/07/16 06:31:04;;;;;;;3.97;3.55;;;21.40;68.80;;;;;;5054928;28;20252;-65
2021/07/16 06:33:29;;;;;;;5.05;4.25;;;21.40;68.60;;;;;;5054595;28;20175;-65
2021/07/16 06:35:55;;;;;;;5.05;3.85;;;21.40;68.60;;;;;;5053964;28;20672;-64
2021/07/16 06:38:20;;;;;;;5.13;3.85;;;21.40;68.60;;;;;;5054722;28;20175;-66
2021/07/16 06:40:46;;;;;;;6.03;4.20;;;21.40;68.60;;;;;;5054555;28;20171;-67
2021/07/16 06:43:11;;;;;;;3.50;3.17;;;21.40;68.50;;;;;;5053977;28;20214;-65
2021/07/16 06:45:37;;;;;;;4.63;3.58;;;21.40;68.50;;;;;;5054332;28;20592;-65
2021/07/16 06:48:04;;;;;;;4.63;3.72;;;21.40;68.50;;;;;;5054680;28;20233;-68
2021/07/16 06:50:30;;;;;;;6.05;3.78;;;21.40;68.50;;;;;;5053440;28;20214;-65
2021/07/16 06:52:55;;;;;;;4.85;3.63;;;21.40;68.50;;;;;;5054111;28;20164;-66
2021/07/16 06:55:21;;;;;;;6.95;4.32;;;21.40;68.50;;;;;;5054418;28;20642;-65
2021/07/16 06:57:47;;;;;;;5.85;4.30;;;21.40;68.50;;;;;;5053609;28;20186;-66
2021/07/16 07:00:13;;;;;;;4.25;3.72;;;21.50;68.80;;;;;;5054442;28;20179;-66
2021/07/16 07:02:38;;;;;;;6.28;4.05;;;21.40;68.60;;;;;;5054111;28;20201;-66
2021/07/16 07:05:05;;;;;;;4.95;4.15;;;21.40;68.60;;;;;;5053532;28;20171;-66
2021/07/16 07:07:30;;;;;;;6.63;3.90;;;21.40;68.70;;;;;;5053856;28;20179;-66
2021/07/16 07:10:02;;;;;;;6.10;4.25;;;21.50;68.70;;;;;;5054184;28;20209;-66
2021/07/16 07:12:28;;;;;;;6.07;3.83;;;21.40;69.50;;;;;;5052282;28;20557;-66
2021/07/16 07:14:53;;;;;;;6.75;4.32;;;21.40;68.60;;;;;;5053734;28;20187;-67
2021/07/16 07:17:20;;;;;;;5.18;4.22;;;21.40;68.60;;;;;;5054091;28;20172;-67
2021/07/16 07:19:45;;;;;;;4.80;3.75;;;21.50;68.70;;;;;;5053124;28;20179;-66
2021/07/16 07:22:11;;;;;;;5.53;3.78;;;21.40;68.50;;;;;;5053790;28;20189;-67
2021/07/16 07:24:36;;;;;;;8.63;4.78;;;21.40;68.20;;;;;;5053673;28;20171;-66
2021/07/16 07:27:02;;;;;;;9.02;4.18;;;21.40;68.10;;;;;;5053031;28;20218;-66
2021/07/16 07:29:31;;;;;;;9.77;4.30;;;21.40;67.60;;;;;;5053949;28;20175;-66
2021/07/16 07:31:56;;;;;;;9.02;4.32;;;21.40;67.70;;;;;;5052922;28;20175;-65
2021/07/16 07:34:22;;;;;;;8.70;4.30;;;21.40;67.90;;;;;;5053938;28;20190;-66
2021/07/16 07:36:49;;;;;;;10.07;3.78;;;21.50;67.90;;;;;;5053382;28;20175;-66
2021/07/16 07:39:15;;;;;;;6.28;3.95;;;21.50;67.90;;;;;;5052950;28;20540;-67
2021/07/16 07:41:45;;;;;;;9.82;4.35;;;21.50;67.70;;;;;;5053311;28;20645;-65
2021/07/16 07:44:11;;;;;;;10.65;4.38;;;21.50;67.60;;;;;;5053536;28;20186;-66
2021/07/16 07:46:36;;;;;;;10.35;4.75;;;21.60;67.70;;;;;;5052504;28;20195;-66
2021/07/16 07:49:06;;;;;;;10.77;4.03;;;21.50;67.50;;;;;;5053262;28;20580;-66
2021/07/16 07:51:33;;;;;;;7.25;3.85;;;21.50;68.40;;;;;;5053050;28;20222;-66
2021/07/16 07:53:59;;;;;;;7.00;3.65;;;21.50;67.70;;;;;;5052545;28;20540;-65
2021/07/16 07:56:24;;;;;;;8.23;3.80;;;21.50;67.70;;;;;;5053353;28;20182;-65
2021/07/16 07:58:50;;;;;;;8.75;3.60;;;21.50;67.70;;;;;;5052898;28;20171;-65
2021/07/16 08:01:15;;;;;;;7.55;3.67;;;21.50;67.80;;;;;;5052115;28;20171;-67
2021/07/16 08:03:41;;;;;;;6.65;3.80;;;21.50;67.90;;;;;;5051833;28;20175;-67
2021/07/16 08:06:06;;;;;;;8.57;3.97;;;21.50;67.80;;;;;;5053308;28;20191;-67
2021/07/16 08:08:32;;;;;;;9.15;3.78;;;21.50;67.80;;;;;;5052085;28;20656;-67
2021/07/16 08:10:57;;;;;;;13.45;4.78;;;21.50;67.70;;;;;;5061408;28;20212;-67
2021/07/16 08:13:23;;;;;;;9.30;3.90;;;21.50;67.50;;;;;;5066188;28;20614;-66
2021/07/16 08:15:49;;;;;;;10.82;3.67;;;21.60;67.70;;;;;;5052036;28;20675;-67
2021/07/16 08:18:15;;;;;;;11.48;3.97;;;21.60;67.50;;;;;;5063541;28;20592;-68
2021/07/16 08:20:40;;;;;;;8.38;4.03;;;21.60;67.50;;;;;;5072788;28;20656;-67
2021/07/16 08:23:06;;;;;;;9.98;4.10;;;21.60;67.50;;;;;;5072285;28;20553;-67
2021/07/16 08:25:34;;;;;;;9.25;4.00;;;21.60;67.40;;;;;;5071395;28;20265;-67
2021/07/16 08:28:00;;;;;;;7.13;3.53;;;21.70;67.40;;;;;;5052467;28;20246;-66
2021/07/16 08:30:26;;;;;;;8.98;3.65;;;21.70;67.40;;;;;;5052421;28;20253;-66
2021/07/16 08:32:51;;;;;;;8.82;3.58;;;21.70;67.40;;;;;;5052328;28;20262;-67
2021/07/16 08:35:18;;;;;;;9.05;3.80;;;21.70;67.40;;;;;;5052065;28;20186;-67
2021/07/16 08:37:43;;;;;;;10.55;3.72;;;21.70;67.50;;;;;;5052569;28;20179;-67
2021/07/16 08:40:09;;;;;;;7.88;3.92;;;21.70;67.40;;;;;;5052843;28;20228;-67
2021/07/16 08:42:35;;;;;;;7.45;3.30;;;21.70;67.40;;;;;;5052739;28;20175;-67
2021/07/16 08:45:05;;;;;;;7.05;3.83;;;21.70;67.40;;;;;;5072508;28;20189;-67
2021/07/16 08:47:31;;;;;;;7.38;3.85;;;21.80;67.40;;;;;;5072259;28;20179;-67
2021/07/16 08:49:56;;;;;;;8.75;3.65;;;21.80;67.40;;;;;;5070830;28;20218;-67
2021/07/16 08:52:22;;;;;;;6.82;3.33;;;21.80;67.30;;;;;;5071443;28;20218;-66
2021/07/16 08:54:49;;;;;;;6.60;3.38;;;21.90;67.30;;;;;;5072331;28;20174;-67
2021/07/16 08:57:16;;;;;;;6.07;3.35;;;21.90;67.20;;;;;;5071833;28;20178;-66
2021/07/16 08:59:42;;;;;;;6.82;3.92;;;21.90;67.10;;;;;;5072207;28;20183;-67
2021/07/16 09:02:07;;;;;;;7.35;3.35;;;21.90;67.00;;;;;;5072445;28;20196;-67
2021/07/16 09:04:38;;;;;;;7.18;3.55;;;21.90;67.00;;;;;;5071516;28;20170;-67
2021/07/16 09:07:03;;;;;;;5.65;3.10;;;21.90;67.00;;;;;;5072657;28;20187;-67
2021/07/16 09:09:36;;;;;;;7.50;3.75;;;21.90;67.00;;;;;;5072438;28;20182;-67
2021/07/16 09:12:05;;;;;;;6.63;3.50;;;21.90;67.00;;;;;;5071612;28;20182;-66
2021/07/16 09:14:31;;;;;;;7.68;3.30;;;21.90;67.20;;;;;;5072343;28;20178;-70
2021/07/16 09:17:03;;;;;;;6.97;3.42;;;21.80;67.30;;;;;;5075866;28;20179;-66
2021/07/16 09:19:38;;;;;;;10.20;4.65;;;21.80;67.30;;;;;;5055788;28;20183;-66
2021/07/16 09:22:10;;;;;;;7.15;3.92;;;21.80;67.50;;;;;;5056297;28;20219;-66
2021/07/16 09:24:37;;;;;;;7.63;4.10;;;21.80;67.70;;;;;;5053869;28;20179;-66
2021/07/16 09:27:30;;;;;;;6.80;3.45;;;21.80;67.70;;;;;;5055787;28;20728;-65
2021/07/16 09:30:11;;;;;;;6.40;4.03;;;21.80;67.70;;;;;;5054945;28;20202;-64
2021/07/16 09:32:39;;;;;;;7.95;4.00;;;21.80;67.80;;;;;;5055034;28;20198;-67
2021/07/16 09:35:05;;;;;;;8.77;4.00;;;21.70;67.70;;;;;;5055900;28;20271;-69
2021/07/16 09:37:31;;;;;;;6.72;3.78;;;21.80;67.80;;;;;;5055614;28;20171;-66
2021/07/16 09:39:58;;;;;;;8.65;3.55;;;21.70;67.80;;;;;;5054116;28;20864;-65
2021/07/16 09:42:23;;;;;;;7.22;3.65;;;21.70;67.90;;;;;;5054722;28;20187;-66
2021/07/16 09:44:57;;;;;;;7.45;3.92;;;21.70;68.00;;;;;;5055609;28;20233;-66
2021/07/16 09:47:23;;;;;;;7.03;3.75;;;21.70;68.00;;;;;;5055541;28;20225;-65
2021/07/16 09:50:06;;;;;;;7.97;4.10;;;21.60;68.00;;;;;;5055225;28;20219;-65
2021/07/16 09:52:31;;;;;;;9.40;4.32;;;21.60;68.00;;;;;;5053791;28;20179;-65
2021/07/16 09:55:18;;;;;;;6.15;3.83;;;21.60;68.00;;;;;;5055991;28;20173;-65
2021/07/16 09:57:45;;;;;;;5.55;3.35;;;21.60;68.00;;;;;;5055451;28;20182;-65
2021/07/16 10:00:21;;;;;;;8.60;3.67;;;21.60;67.90;;;;;;5054800;28;20210;-65
2021/07/16 10:02:49;;;;;;;6.93;4.13;;;21.60;67.80;;;;;;5055336;28;20192;-65
2021/07/16 10:05:15;;;;;;;6.38;3.90;;;21.70;67.80;;;;;;5055468;28;20233;-65
2021/07/16 10:07:41;;;;;;;7.53;3.85;;;21.70;67.70;;;;;;5054463;28;20180;-65
2021/07/16 10:10:11;;;;;;;7.72;3.70;;;21.70;67.60;;;;;;5055020;28;20214;-64
2021/07/16 10:12:37;;;;;;;10.70;4.05;;;21.70;67.50;;;;;;5053799;28;20198;-64
2021/07/16 10:15:02;;;;;;;6.28;3.80;;;21.80;67.50;;;;;;5053272;28;20540;-66
2021/07/16 10:17:28;;;;;;;7.78;3.67;;;21.80;67.40;;;;;;5054828;28;20225;-66
2021/07/16 10:19:53;;;;;;;6.80;3.83;;;21.80;67.30;;;;;;5054904;28;20206;-66
2021/07/16 10:22:19;;;;;;;6.28;3.75;;;21.80;67.30;;;;;;5053289;28;20175;-66
2021/07/16 10:24:44;;;;;;;8.40;3.90;;;21.80;67.20;;;;;;5053544;28;20198;-66
2021/07/16 10:27:10;;;;;;;7.07;3.60;;;21.80;68.00;;;;;;5052885;28;20300;-65
2021/07/16 10:29:39;;;;;;;6.55;3.42;;;21.80;67.00;;;;;;5053770;28;20171;-65
2021/07/16 10:32:08;;;;;;;7.22;3.50;;;21.90;67.00;;;;;;5055095;28;20599;-65
2021/07/16 10:34:35;;;;;;;6.43;3.28;;;22.00;66.90;;;;;;5054612;28;20167;-66
2021/07/16 10:37:12;;;;;;;6.18;3.60;;;22.00;66.80;;;;;;5054412;28;20179;-66
2021/07/16 10:39:39;;;;;;;10.20;4.03;;;22.00;66.70;;;;;;5054597;28;20178;-66
2021/07/16 10:42:25;;;;;;;8.18;3.88;;;22.00;66.80;;;;;;5054686;28;20171;-66
2021/07/16 10:44:51;;;;;;;10.50;3.72;;;22.00;66.90;;;;;;5050372;28;20183;-66
2021/07/16 10:47:39;;;;;;;7.20;3.78;;;22.00;67.00;;;;;;5054813;28;20202;-65
2021/07/16 10:50:06;;;;;;;6.22;3.80;;;22.00;67.10;;;;;;5053655;28;20211;-66
2021/07/16 10:52:50;;;;;;;8.65;3.65;;;21.90;67.10;;;;;;5054165;28;20179;-69
2021/07/16 10:55:29;;;;;;;8.77;4.15;;;21.90;67.10;;;;;;5054670;28;20190;-66
2021/07/16 10:57:54;;;;;;;10.45;4.10;;;21.90;67.10;;;;;;5053649;28;20253;-66
2021/07/16 11:00:40;;;;;;;9.10;4.05;;;21.90;67.20;;;;;;5054439;28;20645;-67
2021/07/16 11:03:07;;;;;;;7.93;3.95;;;21.90;67.30;;;;;;5053477;28;20340;-66
2021/07/16 11:05:32;;;;;;;10.10;3.92;;;21.90;67.30;;;;;;5053893;28;20589;-68
2021/07/16 11:08:01;;;;;;;9.07;3.55;;;21.90;67.30;;;;;;5054308;28;20167;-61
2021/07/16 11:10:45;;;;;;;9.65;4.32;;;21.90;67.30;;;;;;5053336;28;20219;-68
2021/07/16 11:13:33;;;;;;;10.70;4.63;;;21.90;67.30;;;;;;5054007;28;20642;-67
2021/07/16 11:15:58;;;;;;;9.10;3.72;;;21.90;67.30;;;;;;5053919;28;20665;-68
2021/07/16 11:18:27;;;;;;;9.70;3.88;;;21.80;67.40;;;;;;5053178;28;20183;-68
2021/07/16 11:20:53;;;;;;;8.63;4.22;;;21.80;67.50;;;;;;5053598;28;20180;-68
2021/07/16 11:23:20;;;;;;;7.30;4.15;;;21.80;67.50;;;;;;5054021;28;20179;-68
2021/07/16 11:25:45;;;;;;;8.98;4.07;;;21.80;67.60;;;;;;5051503;28;20648;-67
2021/07/16 11:28:11;;;;;;;8.75;3.90;;;21.80;67.60;;;;;;5053774;28;20219;-68
2021/07/16 11:30:36;;;;;;;12.10;4.28;;;21.80;67.50;;;;;;5053389;28;20684;-67
2021/07/16 11:33:06;;;;;;;11.57;5.40;;;21.80;67.50;;;;;;5052909;28;20175;-67
2021/07/16 11:35:32;;;;;;;10.45;4.00;;;21.80;67.40;;;;;;5053709;28;20266;-68
2021/07/16 11:37:58;;;;;;;8.77;4.07;;;21.80;67.20;;;;;;5052580;28;20175;-68
2021/07/16 11:40:27;;;;;;;8.65;4.18;;;21.80;67.20;;;;;;5053040;28;20178;-69
2021/07/16 11:42:53;;;;;;;8.63;3.78;;;21.90;67.20;;;;;;5053384;28;20633;-68
2021/07/16 11:45:19;;;;;;;8.57;3.67;;;21.90;67.20;;;;;;5052753;28;20179;-68
2021/07/16 11:47:45;;;;;;;6.38;3.97;;;21.90;67.00;;;;;;5053317;28;20175;-67
2021/07/16 11:50:12;;;;;;;7.75;3.92;;;22.00;66.80;;;;;;5053277;28;20314;-67
2021/07/16 11:52:39;;;;;;;8.73;3.88;;;22.00;66.70;;;;;;5052357;28;20629;-67
2021/07/16 11:55:09;;;;;;;7.25;3.75;;;22.00;66.60;;;;;;5053226;28;20234;-66
2021/07/16 11:57:36;;;;;;;7.03;3.92;;;22.00;66.70;;;;;;5053071;28;20172;-67
2021/07/16 12:00:03;;;;;;;8.18;4.20;;;22.00;66.60;;;;;;5052528;28;20691;-67
2021/07/16 12:02:29;;;;;;;8.25;4.15;;;22.00;66.70;;;;;;5053264;28;20184;-67
2021/07/16 12:04:57;;;;;;;8.32;3.95;;;22.00;66.90;;;;;;5053322;28;20183;-68
2021/07/16 12:07:23;;;;;;;11.90;3.80;;;22.00;66.90;;;;;;5052522;28;20171;-67
2021/07/16 12:09:49;;;;;;;7.43;3.88;;;21.90;67.00;;;;;;5052618;28;20565;-66
2021/07/16 12:12:20;;;;;;;8.23;3.90;;;21.90;67.10;;;;;;5053110;28;20206;-67
2021/07/16 12:15:02;;;;;;;7.45;3.60;;;21.90;67.10;;;;;;5052043;28;20175;-66
2021/07/16 12:17:38;;;;;;;8.00;3.42;;;21.90;67.20;;;;;;5053028;28;20559;-68
2021/07/16 12:20:06;;;;;;;7.13;3.92;;;21.90;67.20;;;;;;5052906;28;20174;-69
2021/07/16 12:22:33;;;;;;;7.78;3.72;;;21.90;67.10;;;;;;5052631;28;20182;-67
2021/07/16 12:24:59;;;;;;;7.55;3.70;;;21.90;67.10;;;;;;5053052;28;20258;-66
2021/07/16 12:27:24;;;;;;;7.75;3.47;;;21.90;67.00;;;;;;5051816;28;20708;-66
2021/07/16 12:29:57;;;;;;;9.38;3.53;;;21.90;67.00;;;;;;5052525;28;20202;-66
2021/07/16 12:32:41;;;;;;;8.13;3.75;;;21.90;67.00;;;;;;5052600;28;20171;-66
2021/07/16 12:35:26;;;;;;;7.50;3.67;;;21.90;67.10;;;;;;5052172;28;20183;-66
2021/07/16 12:37:52;;;;;;;6.30;3.67;;;21.90;67.10;;;;;;5052383;28;20680;-67
2021/07/16 12:40:20;;;;;;;7.25;3.70;;;21.90;67.10;;;;;;5052853;28;20171;-67
2021/07/16 12:43:11;;;;;;;6.85;3.30;;;21.90;67.10;;;;;;5051516;28;20196;-67
2021/07/16 12:45:37;;;;;;;6.90;3.92;;;21.90;67.10;;;;;;5052568;28;20182;-67